createdAt,value
2022-07-28T00:00:15.495Z,61.44
2022-07-28T00:02:42.969Z,61.48
2022-07-28T00:05:10.794Z,61.22
2022-07-28T00:07:38.219Z,61.07
2022-07-28T00:10:06.262Z,60.96
2022-07-28T00:12:33.669Z,60.66
2022-07-28T00:15:01.393Z,60.80
2022-07-28T00:17:28.805Z,60.60
2022-07-28T00:19:56.147Z,60.92
2022-07-28T00:22:23.663Z,61.04
2022-07-28T00:24:51.060Z,61.00
2022-07-28T00:27:19.501Z,61.10
2022-07-28T00:29:50.172Z,61.15
2022-07-28T00:32:19.301Z,61.23
2022-07-28T00:34:47.106Z,61.25
2022-07-28T00:37:15.182Z,61.31
2022-07-28T00:39:43.783Z,61.22
2022-07-28T00:42:12.379Z,60.88
2022-07-28T00:44:42.011Z,60.88
2022-07-28T00:47:09.782Z,60.95
2022-07-28T00:49:37.931Z,60.97
2022-07-28T00:52:07.496Z,60.83
2022-07-28T00:54:35.707Z,61.10
2022-07-28T00:57:03.189Z,60.98
2022-07-28T00:59:33.715Z,60.96
2022-07-28T01:02:02.314Z,60.93
2022-07-28T01:04:31.036Z,61.28
2022-07-28T01:07:30.756Z,61.23
2022-07-28T01:10:20.004Z,61.38
2022-07-28T01:13:17.388Z,61.13
2022-07-28T01:16:05.089Z,60.70
2022-07-28T01:18:57.187Z,60.69
2022-07-28T01:21:33.998Z,60.56
2022-07-28T01:24:39.694Z,60.51
2022-07-28T01:27:36.758Z,60.95
2022-07-28T01:30:27.707Z,60.92
2022-07-28T01:33:10.292Z,61.01
2022-07-28T01:35:48.318Z,60.93
2022-07-28T01:38:19.830Z,60.59
2022-07-28T01:40:48.449Z,60.54
2022-07-28T01:43:21.648Z,60.68
2022-07-28T01:45:49.084Z,60.53
2022-07-28T01:48:19.024Z,60.99
2022-07-28T01:50:49.571Z,60.85
2022-07-28T01:53:17.896Z,60.95
2022-07-28T01:55:46.350Z,61.22
2022-07-28T01:58:19.856Z,61.24
2022-07-28T02:00:50.482Z,60.99
2022-07-28T02:03:20.006Z,61.04
2022-07-28T02:05:50.438Z,61.01
2022-07-28T02:08:20.985Z,60.93
2022-07-28T02:11:10.190Z,61.02
2022-07-28T02:13:38.067Z,61.35
2022-07-28T02:16:08.268Z,61.37
2022-07-28T02:18:39.325Z,61.16
2022-07-28T02:21:08.179Z,61.14
2022-07-28T02:23:37.770Z,61.27
2022-07-28T02:26:09.879Z,61.51
2022-07-28T02:28:38.915Z,61.57
2022-07-28T02:31:42.096Z,61.87
2022-07-28T02:34:14.962Z,61.87
2022-07-28T02:36:57.700Z,61.90
2022-07-28T02:39:36.648Z,62.33
2022-07-28T02:42:13.359Z,62.11
2022-07-28T02:44:49.670Z,62.30
2022-07-28T02:47:22.668Z,62.32
2022-07-28T02:49:51.508Z,62.40
2022-07-28T02:52:22.946Z,62.77
2022-07-28T02:54:51.809Z,63.03
2022-07-28T02:57:20.618Z,63.13
2022-07-28T02:59:49.817Z,63.13
2022-07-28T03:02:21.541Z,63.20
2022-07-28T03:05:00.827Z,63.00
2022-07-28T03:07:29.829Z,62.94
2022-07-28T03:09:58.208Z,62.97
2022-07-28T03:12:26.393Z,63.14
2022-07-28T03:14:53.831Z,63.20
2022-07-28T03:17:21.453Z,63.31
2022-07-28T03:19:48.882Z,63.07
2022-07-28T03:22:16.363Z,63.16
2022-07-28T03:24:48.980Z,63.37
2022-07-28T03:27:36.685Z,63.29
2022-07-28T03:30:11.654Z,63.27
2022-07-28T03:32:53.738Z,63.15
2022-07-28T03:35:21.779Z,63.25
2022-07-28T03:37:59.168Z,63.24
2022-07-28T03:40:29.762Z,63.63
2022-07-28T03:42:59.568Z,63.36
2022-07-28T03:45:27.652Z,63.37
2022-07-28T03:47:57.527Z,63.68
2022-07-28T03:50:28.109Z,63.56
2022-07-28T03:52:56.740Z,63.46
2022-07-28T03:55:25.043Z,63.44
2022-07-28T03:57:52.592Z,63.10
2022-07-28T04:00:21.114Z,63.41
2022-07-28T04:02:49.128Z,63.32
2022-07-28T04:05:18.249Z,63.21
2022-07-28T04:07:48.589Z,63.13
2022-07-28T04:10:17.355Z,63.16
2022-07-28T04:12:56.611Z,62.81
2022-07-28T04:15:25.967Z,62.89
2022-07-28T04:17:55.311Z,63.30
2022-07-28T04:20:24.764Z,63.43
2022-07-28T04:22:53.662Z,63.38
2022-07-28T04:25:24.023Z,63.48
2022-07-28T04:27:51.922Z,63.55
2022-07-28T04:30:24.587Z,63.77
2022-07-28T04:32:53.710Z,63.45
2022-07-28T04:35:24.248Z,63.54
2022-07-28T04:37:52.939Z,63.87
2022-07-28T04:40:20.568Z,63.53
2022-07-28T04:42:47.997Z,63.67
2022-07-28T04:45:15.468Z,63.40
2022-07-28T04:47:43.429Z,63.38
2022-07-28T04:50:12.900Z,62.93
2022-07-28T04:52:41.120Z,63.04
2022-07-28T04:55:09.082Z,62.99
2022-07-28T04:57:36.620Z,63.19
2022-07-28T05:00:12.283Z,63.47
2022-07-28T05:02:46.218Z,63.46
2022-07-28T05:05:14.010Z,63.26
2022-07-28T05:07:42.047Z,63.31
2022-07-28T05:10:12.285Z,62.99
2022-07-28T05:12:39.826Z,63.14
2022-07-28T05:15:08.496Z,62.79
2022-07-28T05:17:37.076Z,62.44
2022-07-28T05:20:06.233Z,62.70
2022-07-28T05:22:44.869Z,62.33
2022-07-28T05:25:20.804Z,62.20
2022-07-28T05:27:49.533Z,62.51
2022-07-28T05:30:18.073Z,62.58
2022-07-28T05:32:45.762Z,59.75
2022-07-28T05:35:13.429Z,55.63
2022-07-28T05:37:42.411Z,52.38
2022-07-28T05:40:13.736Z,50.99
2022-07-28T05:42:47.445Z,51.30
2022-07-28T05:45:17.040Z,51.25
2022-07-28T05:47:49.275Z,51.46
2022-07-28T05:50:18.807Z,51.62
2022-07-28T05:52:47.746Z,52.18
2022-07-28T05:55:16.076Z,52.71
2022-07-28T05:57:43.867Z,52.60
2022-07-28T06:00:17.192Z,52.86
2022-07-28T06:02:46.125Z,53.19
2022-07-28T06:05:14.142Z,53.14
2022-07-28T06:07:43.529Z,53.24
2022-07-28T06:10:17.343Z,53.24
2022-07-28T06:12:47.347Z,53.09
2022-07-28T06:15:17.402Z,52.97
2022-07-28T06:17:45.874Z,52.80
2022-07-28T06:20:13.895Z,53.32
2022-07-28T06:22:49.205Z,52.97
2022-07-28T06:25:27.777Z,52.72
2022-07-28T06:27:58.082Z,52.68
2022-07-28T06:30:26.759Z,52.48
2022-07-28T06:32:54.876Z,52.46
2022-07-28T06:35:23.043Z,52.28
2022-07-28T06:37:52.607Z,52.06
2022-07-28T06:40:21.492Z,52.07
2022-07-28T06:42:50.035Z,52.06
2022-07-28T06:45:19.925Z,51.73
2022-07-28T06:47:52.690Z,50.99
2022-07-28T06:50:24.935Z,51.00
2022-07-28T06:52:57.299Z,50.82
2022-07-28T06:55:34.581Z,50.76
2022-07-28T06:58:03.851Z,50.27
2022-07-28T07:00:31.486Z,50.35
2022-07-28T07:03:00.557Z,50.16
2022-07-28T07:05:32.224Z,50.03
2022-07-28T07:08:00.101Z,49.86
2022-07-28T07:10:27.666Z,49.74
2022-07-28T07:12:55.040Z,50.07
2022-07-28T07:15:22.403Z,50.31
2022-07-28T07:17:49.829Z,50.22
2022-07-28T07:20:18.349Z,50.10
2022-07-28T07:22:47.325Z,50.16
2022-07-28T07:25:17.727Z,50.08
2022-07-28T07:27:45.403Z,49.75
2022-07-28T07:30:14.453Z,49.75
2022-07-28T07:32:43.159Z,49.81
2022-07-28T07:35:10.831Z,49.29
2022-07-28T07:37:38.265Z,49.21
2022-07-28T07:40:06.624Z,49.02
2022-07-28T07:42:34.456Z,48.83
2022-07-28T07:45:01.992Z,48.90
2022-07-28T07:47:29.374Z,49.09
2022-07-28T07:49:56.885Z,49.12
2022-07-28T07:52:24.306Z,48.69
2022-07-28T07:54:51.724Z,48.66
2022-07-28T07:57:19.137Z,49.05
2022-07-28T07:59:46.481Z,49.05
2022-07-28T08:02:13.902Z,48.72
2022-07-28T08:04:41.387Z,49.08
2022-07-28T08:07:10.420Z,49.01
2022-07-28T08:09:38.296Z,48.81
2022-07-28T08:12:06.017Z,48.65
2022-07-28T08:14:33.428Z,49.02
2022-07-28T08:17:00.808Z,49.02
2022-07-28T08:19:28.342Z,49.15
2022-07-28T08:21:55.840Z,49.23
2022-07-28T08:24:30.271Z,49.06
2022-07-28T08:27:01.557Z,48.80
2022-07-28T08:29:28.928Z,48.47
2022-07-28T08:31:56.561Z,48.30
2022-07-28T08:34:31.574Z,48.89
2022-07-28T08:37:03.740Z,48.95
2022-07-28T08:39:32.910Z,48.94
2022-07-28T08:42:04.360Z,49.34
2022-07-28T08:44:40.678Z,49.06
2022-07-28T08:47:16.840Z,48.99
2022-07-28T08:49:45.166Z,48.80
2022-07-28T08:52:14.280Z,48.92
2022-07-28T08:54:47.464Z,48.83
2022-07-28T08:57:26.658Z,48.87
2022-07-28T08:59:54.802Z,48.87
2022-07-28T09:02:23.506Z,48.76
2022-07-28T09:04:51.150Z,49.13
2022-07-28T09:07:18.994Z,49.21
2022-07-28T09:09:49.587Z,49.60
2022-07-28T09:12:17.719Z,49.84
2022-07-28T09:14:45.278Z,49.49
2022-07-28T09:17:12.894Z,48.79
2022-07-28T09:19:40.490Z,48.47
2022-07-28T09:22:08.270Z,47.86
2022-07-28T09:24:44.863Z,47.81
2022-07-28T09:27:13.783Z,47.99
2022-07-28T09:29:45.142Z,48.13
2022-07-28T09:32:19.060Z,48.21
2022-07-28T09:34:51.587Z,48.29
2022-07-28T09:37:28.449Z,48.57
2022-07-28T09:40:02.328Z,48.73
2022-07-28T09:42:48.001Z,48.99
2022-07-28T09:45:24.118Z,48.74
2022-07-28T09:48:12.876Z,48.41
2022-07-28T09:50:42.450Z,48.29
2022-07-28T09:53:27.610Z,48.20
2022-07-28T09:56:00.052Z,48.66
2022-07-28T09:58:29.578Z,48.43
2022-07-28T10:01:13.018Z,48.63
2022-07-28T10:03:43.038Z,48.83
2022-07-28T10:06:16.249Z,48.96
2022-07-28T10:08:51.382Z,49.30
2022-07-28T10:11:24.770Z,48.83
2022-07-28T10:14:03.564Z,48.97
2022-07-28T10:16:36.981Z,48.80
2022-07-28T10:19:06.456Z,48.78
2022-07-28T10:21:44.193Z,48.50
2022-07-28T10:24:22.025Z,48.91
2022-07-28T10:26:50.808Z,48.44
2022-07-28T10:29:21.055Z,48.52
2022-07-28T10:32:00.531Z,48.51
2022-07-28T10:34:44.717Z,49.00
2022-07-28T10:37:25.835Z,49.18
2022-07-28T10:40:09.991Z,48.62
2022-07-28T10:42:41.402Z,48.98
2022-07-28T10:45:12.692Z,48.91
2022-07-28T10:47:41.259Z,48.84
2022-07-28T10:50:09.184Z,48.79
2022-07-28T10:52:50.613Z,48.71
2022-07-28T10:55:32.723Z,48.96
2022-07-28T10:58:33.723Z,49.02
2022-07-28T11:01:06.026Z,48.75
2022-07-28T11:03:44.307Z,48.62
2022-07-28T11:06:26.226Z,48.84
2022-07-28T11:08:56.298Z,48.33
2022-07-28T11:11:43.232Z,48.05
2022-07-28T11:14:26.004Z,48.55
2022-07-28T11:17:10.599Z,48.16
2022-07-28T11:19:55.834Z,48.72
2022-07-28T11:22:34.000Z,48.38
2022-07-28T11:25:19.268Z,48.06
2022-07-28T11:27:52.244Z,48.22
2022-07-28T11:30:25.755Z,48.41
2022-07-28T11:32:55.990Z,48.29
2022-07-28T11:35:34.540Z,48.15
2022-07-28T11:38:02.957Z,47.86
2022-07-28T11:40:34.673Z,47.93
2022-07-28T11:43:22.026Z,47.55
2022-07-28T11:46:02.498Z,47.51
2022-07-28T11:48:30.828Z,47.46
2022-07-28T11:51:04.325Z,47.01
2022-07-28T11:53:48.204Z,46.96
2022-07-28T11:56:24.939Z,46.94
2022-07-28T11:59:11.414Z,46.78
2022-07-28T12:01:50.963Z,47.12
2022-07-28T12:04:19.006Z,47.25
2022-07-28T12:06:52.293Z,47.02
2022-07-28T12:09:25.243Z,47.29
2022-07-28T12:11:55.826Z,47.14
2022-07-28T12:14:24.098Z,47.18
2022-07-28T12:16:52.267Z,47.31
2022-07-28T12:19:21.364Z,47.35
2022-07-28T12:21:49.246Z,47.54
2022-07-28T12:24:45.500Z,47.34
2022-07-28T12:27:15.152Z,46.87
2022-07-28T12:29:47.871Z,47.09
2022-07-28T12:32:17.657Z,47.00
2022-07-28T12:34:46.051Z,47.22
2022-07-28T12:37:14.375Z,47.38
2022-07-28T12:39:43.418Z,47.25
2022-07-28T12:42:12.832Z,47.70
2022-07-28T12:44:46.109Z,47.70
2022-07-28T12:47:15.532Z,47.08
2022-07-28T12:49:44.436Z,46.95
2022-07-28T12:52:23.186Z,47.00
2022-07-28T12:54:55.596Z,46.88
2022-07-28T12:57:51.686Z,46.74
2022-07-28T13:00:28.233Z,46.91
2022-07-28T13:02:58.144Z,46.68
2022-07-28T13:05:32.565Z,46.74
2022-07-28T13:08:05.269Z,46.86
2022-07-28T13:10:33.500Z,46.88
2022-07-28T13:13:04.356Z,46.70
2022-07-28T13:15:32.020Z,46.99
2022-07-28T13:17:59.840Z,47.44
2022-07-28T13:20:27.693Z,47.21
2022-07-28T13:22:57.347Z,47.55
2022-07-28T13:25:24.808Z,47.36
2022-07-28T13:27:54.922Z,47.49
2022-07-28T13:30:23.634Z,47.58
2022-07-28T13:32:51.527Z,47.26
2022-07-28T13:35:20.933Z,47.03
2022-07-28T13:37:48.730Z,47.42
2022-07-28T13:40:16.223Z,47.72
2022-07-28T13:42:52.399Z,48.06
2022-07-28T13:45:23.575Z,47.81
2022-07-28T13:47:52.010Z,47.46
2022-07-28T13:50:19.924Z,47.27
2022-07-28T13:52:48.439Z,47.96
2022-07-28T13:55:17.763Z,47.92
2022-07-28T13:57:49.276Z,48.06
2022-07-28T14:00:18.188Z,47.82
2022-07-28T14:02:48.674Z,48.27
2022-07-28T14:05:16.467Z,47.96
2022-07-28T14:07:48.515Z,47.96
2022-07-28T14:10:17.837Z,48.10
2022-07-28T14:12:46.391Z,47.92
2022-07-28T14:15:14.655Z,47.99
2022-07-28T14:17:44.267Z,48.18
2022-07-28T14:20:16.569Z,48.73
2022-07-28T14:22:46.282Z,48.87
2022-07-28T14:25:20.967Z,48.22
2022-07-28T14:27:50.686Z,48.46
2022-07-28T14:30:19.586Z,48.38
2022-07-28T14:32:47.099Z,48.42
2022-07-28T14:35:15.010Z,48.37
2022-07-28T14:40:30.497Z,49.12
2022-07-28T14:42:57.842Z,49.05
2022-07-28T14:45:25.360Z,48.60
2022-07-28T14:47:52.744Z,49.03
2022-07-28T14:50:20.239Z,49.02
2022-07-28T14:52:47.796Z,48.70
2022-07-28T14:55:15.433Z,48.79
2022-07-28T14:57:50.030Z,48.93
2022-07-28T15:00:20.180Z,48.89
2022-07-28T15:02:47.832Z,37.54
2022-07-28T15:05:15.581Z,37.21
2022-07-28T15:07:43.270Z,37.93
2022-07-28T15:10:11.326Z,37.45
2022-07-28T15:12:39.835Z,37.57
2022-07-28T15:15:07.752Z,36.92
2022-07-28T15:17:38.328Z,36.58
2022-07-28T15:20:07.327Z,37.32
2022-07-28T15:22:35.229Z,37.18
2022-07-28T15:25:04.195Z,37.03
2022-07-28T15:27:33.788Z,36.93
2022-07-28T15:30:03.067Z,36.42
2022-07-28T15:32:31.653Z,36.92
2022-07-28T15:34:59.755Z,36.71
2022-07-28T15:37:28.091Z,36.24
2022-07-28T15:39:55.669Z,36.36
2022-07-28T15:42:23.103Z,36.63
2022-07-28T15:44:51.542Z,36.53
2022-07-28T15:47:19.007Z,36.58
2022-07-28T15:49:46.443Z,36.47
2022-07-28T15:52:14.614Z,36.50
2022-07-28T15:54:42.235Z,36.25
2022-07-28T15:57:09.751Z,37.16
2022-07-28T15:59:49.992Z,36.14
2022-07-28T16:02:19.293Z,36.10
2022-07-28T16:04:54.163Z,36.28
2022-07-28T16:07:23.576Z,35.32
2022-07-28T16:09:52.605Z,35.16
2022-07-28T16:12:20.651Z,35.53
2022-07-28T16:14:48.073Z,35.37
2022-07-28T16:17:15.775Z,35.80
2022-07-28T16:19:49.636Z,35.81
2022-07-28T16:22:21.338Z,36.15
2022-07-28T16:24:49.312Z,35.47
2022-07-28T16:27:16.868Z,35.72
2022-07-28T16:29:44.902Z,35.73
2022-07-28T16:32:12.865Z,35.72
2022-07-28T16:34:40.282Z,35.28
2022-07-28T16:37:07.717Z,35.59
2022-07-28T16:39:35.567Z,35.84
2022-07-28T16:42:03.245Z,35.46
2022-07-28T16:44:31.298Z,35.31
2022-07-28T16:46:58.978Z,35.62
2022-07-28T16:49:26.512Z,35.86
2022-07-28T16:51:55.697Z,36.08
2022-07-28T16:54:23.611Z,35.39
2022-07-28T16:56:51.436Z,35.64
2022-07-28T16:59:18.869Z,35.90
2022-07-28T17:01:46.904Z,36.64
2022-07-28T17:04:16.202Z,36.17
2022-07-28T17:06:44.215Z,36.82
2022-07-28T17:09:12.404Z,36.86
2022-07-28T17:11:41.752Z,36.81
2022-07-28T17:14:10.665Z,36.51
2022-07-28T17:16:38.599Z,36.72
2022-07-28T17:19:06.148Z,36.81
2022-07-28T17:21:35.797Z,36.63
2022-07-28T17:24:04.223Z,37.11
2022-07-28T17:29:19.540Z,36.84
2022-07-28T17:31:47.772Z,37.26
2022-07-28T17:34:15.388Z,36.82
2022-07-28T17:36:45.369Z,37.17
2022-07-28T17:39:13.635Z,37.02
2022-07-28T17:41:41.018Z,37.15
2022-07-28T17:44:08.392Z,37.47
2022-07-28T17:46:35.897Z,37.29
2022-07-28T17:49:05.197Z,37.03
2022-07-28T17:51:32.612Z,37.52
2022-07-28T17:54:00.137Z,38.17
2022-07-28T17:56:28.297Z,38.40
2022-07-28T17:58:56.324Z,38.29
2022-07-28T18:01:23.828Z,38.76
2022-07-28T18:03:58.127Z,39.23
2022-07-28T18:06:29.908Z,39.33
2022-07-28T18:09:06.522Z,39.22
2022-07-28T18:11:37.432Z,39.36
2022-07-28T18:14:23.790Z,39.77
2022-07-28T18:16:51.102Z,39.45
2022-07-28T18:19:18.479Z,39.32
2022-07-28T18:21:45.855Z,39.72
2022-07-28T18:24:13.665Z,39.80
2022-07-28T18:26:41.237Z,39.95
2022-07-28T18:29:08.606Z,40.59
2022-07-28T18:31:41.264Z,41.14
2022-07-28T18:34:13.284Z,40.36
2022-07-28T18:36:40.914Z,40.55
2022-07-28T18:39:08.718Z,40.87
2022-07-28T18:41:47.143Z,41.35
2022-07-28T18:44:17.316Z,41.62
2022-07-28T18:46:45.546Z,43.71
2022-07-28T18:49:13.267Z,43.00
2022-07-28T18:51:44.990Z,42.39
2022-07-28T18:54:15.604Z,42.63
2022-07-28T18:56:44.947Z,42.87
2022-07-28T18:59:12.438Z,43.17
2022-07-28T19:01:39.930Z,43.16
2022-07-28T19:04:07.881Z,43.12
2022-07-28T19:06:36.446Z,43.42
2022-07-28T19:09:05.288Z,43.17
2022-07-28T19:11:33.522Z,43.56
2022-07-28T19:14:01.127Z,43.32
2022-07-28T19:16:28.602Z,43.68
2022-07-28T19:18:56.040Z,44.25
2022-07-28T19:21:24.497Z,44.33
2022-07-28T19:23:53.001Z,44.23
2022-07-28T19:26:21.628Z,44.60
2022-07-28T19:28:48.998Z,44.31
2022-07-28T19:31:16.408Z,44.49
2022-07-28T19:33:44.331Z,44.60
2022-07-28T19:36:13.751Z,45.15
2022-07-28T19:38:41.488Z,45.21
2022-07-28T19:41:09.837Z,45.50
2022-07-28T19:43:37.367Z,45.49
2022-07-28T19:46:04.947Z,45.72
2022-07-28T19:48:34.104Z,46.20
2022-07-28T19:51:01.720Z,46.68
2022-07-28T19:53:31.972Z,46.27
2022-07-28T19:56:00.005Z,46.49
2022-07-28T19:58:28.590Z,46.86
2022-07-28T20:00:56.364Z,47.02
2022-07-28T20:04:01.825Z,47.08
2022-07-28T20:06:12.162Z,47.24
2022-07-28T20:08:39.848Z,47.27
2022-07-28T20:11:08.110Z,47.44
2022-07-28T20:13:35.558Z,47.17
2022-07-28T20:16:02.905Z,47.38
2022-07-28T20:18:30.286Z,47.46
2022-07-28T20:20:57.617Z,47.69
2022-07-28T20:23:24.984Z,47.82
2022-07-28T20:25:52.881Z,47.92
2022-07-28T20:28:21.502Z,48.47
2022-07-28T20:30:49.243Z,48.48
2022-07-28T20:33:16.856Z,49.08
2022-07-28T20:35:44.291Z,49.44
2022-07-28T20:38:11.714Z,49.46
2022-07-28T20:40:39.208Z,48.99
2022-07-28T20:43:06.563Z,49.34
2022-07-28T20:45:34.494Z,49.72
2022-07-28T20:48:01.935Z,49.71
2022-07-28T20:50:29.330Z,49.50
2022-07-28T20:52:56.770Z,49.71
2022-07-28T20:55:24.249Z,49.57
2022-07-28T20:57:53.760Z,49.76
2022-07-28T21:00:22.561Z,49.83
2022-07-28T21:02:50.398Z,50.02
2022-07-28T21:05:20.188Z,50.11
2022-07-28T21:08:06.201Z,50.16
2022-07-28T21:10:36.893Z,50.08
2022-07-28T21:13:04.518Z,50.60
2022-07-28T21:15:32.072Z,50.46
2022-07-28T21:17:59.660Z,50.64
2022-07-28T21:20:27.317Z,50.70
2022-07-28T21:22:54.738Z,50.53
2022-07-28T21:25:22.884Z,50.73
2022-07-28T21:28:09.822Z,50.72
2022-07-28T21:30:37.175Z,50.82
2022-07-28T21:33:04.611Z,50.65
2022-07-28T21:35:32.055Z,51.10
2022-07-28T21:37:59.502Z,51.57
2022-07-28T21:40:27.144Z,51.13
2022-07-28T21:42:54.544Z,51.19
2022-07-28T21:45:22.274Z,51.43
2022-07-28T21:47:49.707Z,51.14
2022-07-28T21:50:17.263Z,51.62
2022-07-28T21:52:44.638Z,51.33
2022-07-28T21:55:12.135Z,51.06
2022-07-28T21:57:39.563Z,51.51
2022-07-28T22:00:10.415Z,51.26
2022-07-28T22:02:37.777Z,51.52
2022-07-28T22:05:08.637Z,51.56
2022-07-28T22:07:36.044Z,51.80
2022-07-28T22:10:03.915Z,51.80
2022-07-28T22:12:31.245Z,51.98
2022-07-28T22:14:58.572Z,51.37
2022-07-28T22:17:26.019Z,51.09
2022-07-28T22:19:53.364Z,51.23
2022-07-28T22:22:20.747Z,51.16
2022-07-28T22:24:48.099Z,51.55
2022-07-28T22:27:15.546Z,51.45
2022-07-28T22:29:45.068Z,51.60
2022-07-28T22:32:26.666Z,51.96
2022-07-28T22:34:57.632Z,51.74
2022-07-28T22:37:25.156Z,52.06
2022-07-28T22:39:52.520Z,51.35
2022-07-28T22:42:19.864Z,52.02
2022-07-28T22:44:47.236Z,51.90
2022-07-28T22:47:14.547Z,51.82
2022-07-28T22:49:41.897Z,51.93
2022-07-28T22:52:09.452Z,51.86
2022-07-28T22:54:40.522Z,51.65
2022-07-28T22:57:08.071Z,51.58
2022-07-28T22:59:38.621Z,51.90
2022-07-28T23:02:07.903Z,52.42
2022-07-28T23:04:38.842Z,52.05
2022-07-28T23:07:11.981Z,52.63
2022-07-28T23:09:40.444Z,52.32
2022-07-28T23:12:08.508Z,52.60
2022-07-28T23:14:36.673Z,52.56
2022-07-28T23:17:04.988Z,52.75
2022-07-28T23:19:32.426Z,52.82
2022-07-28T23:21:59.815Z,52.83
2022-07-28T23:24:27.236Z,52.83
2022-07-28T23:26:54.628Z,53.14
2022-07-28T23:29:22.124Z,52.97
2022-07-28T23:31:49.755Z,53.16
2022-07-28T23:34:17.459Z,53.41
2022-07-28T23:36:45.195Z,53.68
2022-07-28T23:39:12.934Z,53.91
2022-07-28T23:41:40.624Z,53.95
2022-07-28T23:44:07.980Z,53.99
2022-07-28T23:46:35.376Z,54.32
2022-07-28T23:49:02.873Z,54.20
2022-07-28T23:51:38.374Z,54.46
2022-07-28T23:54:15.252Z,54.33
2022-07-28T23:56:43.411Z,54.34
2022-07-28T23:59:14.057Z,54.67
